Time,TemperatureF,DewpointF,PressureIn,WindDirection,WindDirectionDegrees,WindSpeedMPH,WindSpeedGustMPH,Humidity,HourlyPrecipIn,Conditions,Clouds,dailyrainin,SoftwareType,DateUTC
2013-02-06 00:00:00,34.3,30.3,29.91,NNE,22,0.0,0.0,85,0.00,,OVC,0.02,VWS V14.00,2013-02-06 05:00:00,
2013-02-06 00:05:00,34.3,30.3,29.92,NNE,22,0.0,0.0,85,0.00,,OVC,0.00,VWS V14.00,2013-02-06 05:05:00,
2013-02-06 00:10:00,34.3,30.3,29.92,NNE,22,0.0,0.0,85,0.00,,OVC,0.00,VWS V14.00,2013-02-06 05:10:00,
2013-02-06 00:15:00,34.3,30.3,29.92,NNE,22,0.0,0.0,85,0.00,,OVC,0.00,VWS V14.00,2013-02-06 05:15:00,
2013-02-06 00:20:00,34.3,30.3,29.92,NNE,22,0.0,0.0,85,0.00,,OVC,0.00,VWS V14.00,2013-02-06 05:20:00,
2013-02-06 00:25:00,34.3,30.3,29.92,North,0,0.0,0.0,85,0.00,,OVC,0.00,VWS V14.00,2013-02-06 05:25:00,
2013-02-06 00:30:00,34.3,30.3,29.92,North,0,0.0,0.0,85,0.00,,OVC,0.00,VWS V14.00,2013-02-06 05:30:00,
2013-02-06 00:35:00,34.3,30.3,29.91,North,0,0.0,0.0,85,0.00,,OVC,0.00,VWS V14.00,2013-02-06 05:35:00,
2013-02-06 00:40:00,34.3,30.3,29.92,North,0,0.0,0.0,85,0.00,,OVC,0.00,VWS V14.00,2013-02-06 05:40:00,
2013-02-06 00:45:00,34.3,30.3,29.91,North,0,0.0,0.0,85,0.00,,OVC,0.00,VWS V14.00,2013-02-06 05:45:00,
2013-02-06 00:50:00,34.3,30.3,29.91,NNE,22,0.0,0.0,85,0.00,,OVC,0.00,VWS V14.00,2013-02-06 05:50:00,
2013-02-06 00:55:00,34.1,30.1,29.91,NNE,22,0.0,0.0,85,0.00,,OVC,0.00,VWS V14.00,2013-02-06 05:55:00,
2013-02-06 01:00:00,34.1,30.1,29.91,NNE,22,0.0,0.0,85,0.00,,OVC,0.00,VWS V14.00,2013-02-06 06:00:00,
2013-02-06 01:05:00,34.1,30.1,29.92,NNE,22,0.0,0.0,85,0.00,,OVC,0.00,VWS V14.00,2013-02-06 06:05:00,
2013-02-06 01:10:00,34.3,30.3,29.92,NNW,338,0.0,0.0,85,0.00,,OVC,0.00,VWS V14.00,2013-02-06 06:10:00,
2013-02-06 01:15:00,34.3,30.3,29.91,NNW,338,0.0,0.0,85,0.00,,OVC,0.00,VWS V14.00,2013-02-06 06:15:00,
2013-02-06 01:20:00,34.3,30.3,29.92,NNW,338,0.0,0.0,85,0.00,,OVC,0.00,VWS V14.00,2013-02-06 06:20:00,
2013-02-06 01:25:00,34.3,30.3,29.92,NNE,22,0.0,0.0,85,0.00,,OVC,0.00,VWS V14.00,2013-02-06 06:25:00,
2013-02-06 01:30:00,34.1,30.1,29.92,North,0,0.0,0.0,85,0.00,,OVC,0.00,VWS V14.00,2013-02-06 06:30:00,
2013-02-06 01:35:00,34.1,30.1,29.92,North,0,0.0,0.0,85,0.00,,OVC,0.00,VWS V14.00,2013-02-06 06:35:00,
2013-02-06 01:40:00,33.9,29.9,29.92,NNW,338,0.0,0.0,85,0.00,,OVC,0.00,VWS V14.00,2013-02-06 06:40:00,
2013-02-06 01:45:00,33.9,29.9,29.92,NNE,22,0.0,0.0,85,0.00,,OVC,0.00,VWS V14.00,2013-02-06 06:45:00,
2013-02-06 01:50:00,33.9,29.9,29.92,North,0,0.0,0.0,85,0.00,,OVC,0.00,VWS V14.00,2013-02-06 06:50:00,
2013-02-06 01:55:00,33.8,29.8,29.93,North,0,2.0,2.0,85,0.00,,OVC,0.00,VWS V14.00,2013-02-06 06:55:00,
2013-02-06 02:00:00,33.8,29.8,29.93,NNE,22,0.0,0.0,85,0.00,,OVC,0.00,VWS V14.00,2013-02-06 07:00:00,
2013-02-06 02:05:00,33.8,29.8,29.93,NNE,22,0.0,0.0,85,0.00,,OVC,0.00,VWS V14.00,2013-02-06 07:05:00,
2013-02-06 02:10:00,33.8,29.8,29.93,North,0,0.0,0.0,85,0.00,,OVC,0.00,VWS V14.00,2013-02-06 07:10:00,
2013-02-06 02:15:00,33.8,29.8,29.94,WNW,292,0.0,0.0,85,0.00,,OVC,0.00,VWS V14.00,2013-02-06 07:15:00,
2013-02-06 02:20:00,33.8,29.8,29.94,NNW,338,0.0,0.0,85,0.00,,OVC,0.00,VWS V14.00,2013-02-06 07:20:00,
2013-02-06 02:25:00,33.9,29.9,29.93,NNW,338,0.0,0.0,85,0.00,,OVC,0.00,VWS V14.00,2013-02-06 07:25:00,
2013-02-06 02:30:00,33.9,29.9,29.93,NW,315,0.0,0.0,85,0.00,,OVC,0.00,VWS V14.00,2013-02-06 07:30:00,
2013-02-06 02:35:00,33.9,29.9,29.93,NW,315,0.0,0.0,85,0.00,,OVC,0.00,VWS V14.00,2013-02-06 07:35:00,
2013-02-06 02:40:00,33.9,29.9,29.93,NW,315,0.0,0.0,85,0.00,,OVC,0.00,VWS V14.00,2013-02-06 07:40:00,
2013-02-06 02:45:00,33.8,29.8,29.93,NW,315,0.0,0.0,85,0.00,,OVC,0.00,VWS V14.00,2013-02-06 07:45:00,
2013-02-06 02:50:00,33.8,29.8,29.93,North,0,0.0,0.0,85,0.00,,OVC,0.00,VWS V14.00,2013-02-06 07:50:00,
2013-02-06 02:55:00,33.8,29.8,29.93,NW,315,0.0,0.0,85,0.00,,OVC,0.00,VWS V14.00,2013-02-06 07:55:00,
2013-02-06 03:00:00,33.6,29.6,29.93,WNW,292,0.0,0.0,85,0.00,,OVC,0.00,VWS V14.00,2013-02-06 08:00:00,
2013-02-06 03:05:00,33.6,29.6,29.93,NNW,338,1.3,1.3,85,0.00,,OVC,0.00,VWS V14.00,2013-02-06 08:05:00,
2013-02-06 03:10:00,33.4,29.4,29.93,North,0,0.0,0.0,85,0.00,,OVC,0.00,VWS V14.00,2013-02-06 08:10:00,
2013-02-06 03:15:00,33.4,29.4,29.93,NNE,22,0.0,0.0,85,0.00,,OVC,0.00,VWS V14.00,2013-02-06 08:15:00,
2013-02-06 03:20:00,33.2,29.2,29.93,WNW,292,0.0,0.0,85,0.00,,OVC,0.00,VWS V14.00,2013-02-06 08:20:00,
2013-02-06 03:25:00,33.0,29.0,29.93,WNW,292,0.0,0.0,85,0.00,,OVC,0.00,VWS V14.00,2013-02-06 08:25:00,
2013-02-06 03:30:00,32.9,28.9,29.94,WNW,292,0.0,0.0,85,0.00,,OVC,0.00,VWS V14.00,2013-02-06 08:30:00,
2013-02-06 03:35:00,32.9,28.9,29.94,NW,315,0.0,0.0,85,0.00,,OVC,0.00,VWS V14.00,2013-02-06 08:35:00,
2013-02-06 03:40:00,33.0,29.0,29.94,WNW,292,1.3,1.3,85,0.00,,OVC,0.00,VWS V14.00,2013-02-06 08:40:00,
2013-02-06 03:45:00,33.0,29.0,29.95,WNW,292,0.0,0.0,85,0.00,,OVC,0.00,VWS V14.00,2013-02-06 08:45:00,
2013-02-06 03:50:00,33.2,29.2,29.95,WNW,292,0.0,0.0,85,0.00,,OVC,0.00,VWS V14.00,2013-02-06 08:50:00,
2013-02-06 03:55:00,33.4,29.4,29.94,WNW,292,0.0,0.0,85,0.00,,OVC,0.00,VWS V14.00,2013-02-06 08:55:00,
2013-02-06 04:00:00,33.4,29.4,29.94,WNW,292,0.0,0.0,85,0.00,,OVC,0.00,VWS V14.00,2013-02-06 09:00:00,
2013-02-06 04:05:00,33.2,29.2,29.94,WNW,292,0.0,0.0,85,0.00,,OVC,0.00,VWS V14.00,2013-02-06 09:05:00,
2013-02-06 04:10:00,33.2,29.2,29.94,WNW,292,0.0,0.0,85,0.00,,OVC,0.00,VWS V14.00,2013-02-06 09:10:00,
2013-02-06 04:15:00,33.2,29.2,29.95,WNW,292,0.0,0.0,85,0.00,,OVC,0.00,VWS V14.00,2013-02-06 09:15:00,
2013-02-06 04:20:00,33.2,29.2,29.95,WNW,292,0.0,0.0,85,0.00,,OVC,0.00,VWS V14.00,2013-02-06 09:20:00,
2013-02-06 04:25:00,33.4,29.4,29.96,NE,45,0.0,0.0,85,0.00,,OVC,0.00,VWS V14.00,2013-02-06 09:25:00,
2013-02-06 04:30:00,33.4,29.7,29.96,West,270,0.0,0.0,86,0.00,,OVC,0.00,VWS V14.00,2013-02-06 09:30:00,
2013-02-06 04:35:00,33.2,29.2,29.96,WSW,248,0.0,0.0,85,0.00,,OVC,0.00,VWS V14.00,2013-02-06 09:35:00,
2013-02-06 04:40:00,32.9,28.9,29.96,West,270,0.0,0.0,85,0.00,,OVC,0.00,VWS V14.00,2013-02-06 09:40:00,
2013-02-06 04:45:00,32.7,29.0,29.96,WSW,248,0.0,0.0,86,0.00,,OVC,0.00,VWS V14.00,2013-02-06 09:45:00,
2013-02-06 04:50:00,32.5,28.5,29.96,West,270,0.0,0.0,85,0.00,,OVC,0.00,VWS V14.00,2013-02-06 09:50:00,
2013-02-06 04:55:00,32.3,28.6,29.96,WNW,292,0.0,0.0,86,0.00,,OVC,0.00,VWS V14.00,2013-02-06 09:55:00,
2013-02-06 05:00:00,32.3,28.6,29.97,WNW,292,0.0,0.0,86,0.00,,OVC,0.00,VWS V14.00,2013-02-06 10:00:00,
2013-02-06 05:05:00,32.3,28.6,29.97,West,270,0.0,0.0,86,0.00,,OVC,0.00,VWS V14.00,2013-02-06 10:05:00,
2013-02-06 05:10:00,32.5,28.8,29.97,WNW,292,0.0,0.0,86,0.00,,OVC,0.00,VWS V14.00,2013-02-06 10:10:00,
2013-02-06 05:15:00,32.3,28.6,29.98,WNW,292,0.0,0.0,86,0.00,,OVC,0.00,VWS V14.00,2013-02-06 10:15:00,
2013-02-06 05:20:00,32.1,28.4,29.98,WNW,292,0.0,0.0,86,0.00,,OVC,0.00,VWS V14.00,2013-02-06 10:20:00,
2013-02-06 05:25:00,32.1,28.4,29.98,WNW,292,0.0,0.0,86,0.00,,OVC,0.00,VWS V14.00,2013-02-06 10:25:00,
2013-02-06 05:30:00,31.8,28.1,29.99,West,270,0.0,0.0,86,0.00,,OVC,0.00,VWS V14.00,2013-02-06 10:30:00,
2013-02-06 05:35:00,31.6,27.9,29.98,WNW,292,0.0,0.0,86,0.00,,OVC,0.00,VWS V14.00,2013-02-06 10:35:00,
2013-02-06 05:40:00,31.2,27.5,29.98,West,270,0.0,0.0,86,0.00,,OVC,0.00,VWS V14.00,2013-02-06 10:40:00,
2013-02-06 05:45:00,31.2,27.5,29.98,West,270,0.0,0.0,86,0.00,,OVC,0.00,VWS V14.00,2013-02-06 10:45:00,
2013-02-06 05:50:00,31.1,27.4,29.99,West,270,0.0,0.0,86,0.00,,OVC,0.00,VWS V14.00,2013-02-06 10:50:00,
2013-02-06 05:55:00,30.9,27.2,29.99,WNW,292,0.0,0.0,86,0.00,,OVC,0.00,VWS V14.00,2013-02-06 10:55:00,
2013-02-06 06:00:00,30.7,27.0,29.99,West,270,0.0,0.0,86,0.00,,OVC,0.00,VWS V14.00,2013-02-06 11:00:00,
2013-02-06 06:05:00,30.7,27.0,30.00,WNW,292,0.0,0.0,86,0.00,,OVC,0.00,VWS V14.00,2013-02-06 11:05:00,
2013-02-06 06:10:00,30.7,27.0,30.00,WNW,292,0.0,0.0,86,0.00,,OVC,0.00,VWS V14.00,2013-02-06 11:10:00,
2013-02-06 06:15:00,30.5,26.8,30.00,WNW,292,0.0,0.0,86,0.00,,OVC,0.00,VWS V14.00,2013-02-06 11:15:00,
2013-02-06 06:20:00,30.5,26.8,30.01,WNW,292,0.0,0.0,86,0.00,,OVC,0.00,VWS V14.00,2013-02-06 11:20:00,
2013-02-06 06:25:00,30.3,26.6,30.01,WNW,292,0.0,0.0,86,0.00,,OVC,0.00,VWS V14.00,2013-02-06 11:25:00,
2013-02-06 06:30:00,30.0,26.6,30.02,West,270,0.0,0.0,87,0.00,,OVC,0.00,VWS V14.00,2013-02-06 11:30:00,
2013-02-06 06:35:00,30.0,26.6,30.02,WNW,292,0.0,0.0,87,0.00,,OVC,0.00,VWS V14.00,2013-02-06 11:35:00,
2013-02-06 06:40:00,30.0,26.6,30.02,WNW,292,0.4,0.4,87,0.00,,OVC,0.00,VWS V14.00,2013-02-06 11:40:00,
2013-02-06 06:45:00,30.0,26.6,30.03,West,270,0.0,0.0,87,0.00,,OVC,0.00,VWS V14.00,2013-02-06 11:45:00,
2013-02-06 06:50:00,30.0,26.6,30.03,West,270,0.0,0.0,87,0.00,,OVC,0.00,VWS V14.00,2013-02-06 11:50:00,
2013-02-06 06:55:00,30.0,26.6,30.03,West,270,0.0,0.0,87,0.00,,OVC,0.00,VWS V14.00,2013-02-06 11:55:00,
2013-02-06 07:00:00,29.8,26.4,30.03,West,270,0.0,0.0,87,0.00,,OVC,0.00,VWS V14.00,2013-02-06 12:00:00,
2013-02-06 07:05:00,29.8,26.4,30.04,WSW,248,0.0,0.0,87,0.00,,OVC,0.00,VWS V14.00,2013-02-06 12:05:00,
2013-02-06 07:10:00,30.0,26.6,30.04,WSW,248,0.0,0.0,87,0.00,,OVC,0.00,VWS V14.00,2013-02-06 12:10:00,
2013-02-06 07:15:00,30.0,26.6,30.05,West,270,0.0,0.0,87,0.00,,OVC,0.00,VWS V14.00,2013-02-06 12:15:00,
2013-02-06 07:20:00,30.3,26.9,30.05,WSW,248,0.0,0.0,87,0.00,,OVC,0.00,VWS V14.00,2013-02-06 12:20:00,
2013-02-06 07:25:00,30.7,27.3,30.05,WSW,248,0.0,0.0,87,0.00,,OVC,0.00,VWS V14.00,2013-02-06 12:25:00,
2013-02-06 07:30:00,30.9,27.5,30.05,WSW,248,0.0,0.0,87,0.00,,OVC,0.00,VWS V14.00,2013-02-06 12:30:00,
2013-02-06 07:35:00,31.1,27.7,30.05,SW,225,0.0,0.0,87,0.00,,OVC,0.00,VWS V14.00,2013-02-06 12:35:00,
2013-02-06 07:40:00,31.6,28.2,30.05,WSW,248,0.4,0.4,87,0.00,,OVC,0.00,VWS V14.00,2013-02-06 12:40:00,
2013-02-06 07:45:00,32.3,28.9,30.05,West,270,0.0,0.0,87,0.00,,OVC,0.00,VWS V14.00,2013-02-06 12:45:00,
2013-02-06 07:50:00,32.7,29.3,30.05,WSW,248,0.0,0.0,87,0.00,,OVC,0.00,VWS V14.00,2013-02-06 12:50:00,
2013-02-06 07:55:00,33.4,29.7,30.06,SW,225,0.0,0.0,86,0.00,,OVC,0.00,VWS V14.00,2013-02-06 12:55:00,
2013-02-06 08:00:00,33.8,30.1,30.06,West,270,0.0,0.0,86,0.00,,OVC,0.00,VWS V14.00,2013-02-06 13:00:00,
2013-02-06 08:05:00,34.3,30.3,30.06,West,270,0.0,0.0,85,0.00,,OVC,0.00,VWS V14.00,2013-02-06 13:05:00,
2013-02-06 08:10:00,34.5,30.5,30.07,West,270,0.0,0.0,85,0.00,,OVC,0.00,VWS V14.00,2013-02-06 13:10:00,
2013-02-06 08:15:00,34.8,30.5,30.07,WNW,292,1.5,1.5,84,0.00,,OVC,0.00,VWS V14.00,2013-02-06 13:15:00,
2013-02-06 08:20:00,34.8,30.5,30.07,West,270,2.9,2.9,84,0.00,,OVC,0.00,VWS V14.00,2013-02-06 13:20:00,
2013-02-06 08:25:00,35.2,30.6,30.08,WNW,292,0.8,0.8,83,0.00,,OVC,0.00,VWS V14.00,2013-02-06 13:25:00,
2013-02-06 08:30:00,35.4,30.5,30.08,West,270,1.7,1.7,82,0.00,,OVC,0.00,VWS V14.00,2013-02-06 13:30:00,
2013-02-06 08:35:00,35.7,30.8,30.08,NW,315,0.0,0.0,82,0.00,,OVC,0.00,VWS V14.00,2013-02-06 13:35:00,
2013-02-06 08:40:00,36.3,31.0,30.08,WNW,292,4.2,4.2,81,0.00,,OVC,0.00,VWS V14.00,2013-02-06 13:40:00,
2013-02-06 08:45:00,36.6,30.7,30.08,West,270,0.0,0.0,79,0.00,,OVC,0.00,VWS V14.00,2013-02-06 13:45:00,
2013-02-06 08:50:00,37.0,30.8,30.08,WNW,292,0.0,0.0,78,0.00,,OVC,0.00,VWS V14.00,2013-02-06 13:50:00,
2013-02-06 08:55:00,37.2,30.7,30.08,WNW,292,3.5,3.5,77,0.00,,OVC,0.00,VWS V14.00,2013-02-06 13:55:00,
2013-02-06 09:00:00,37.4,30.2,30.09,NW,315,4.6,4.6,75,0.00,,OVC,0.00,VWS V14.00,2013-02-06 14:00:00,
2013-02-06 09:05:00,37.7,30.2,30.09,NNW,338,1.5,1.5,74,0.00,,OVC,0.00,VWS V14.00,2013-02-06 14:05:00,
2013-02-06 09:10:00,37.9,30.4,30.09,WNW,292,0.0,0.0,74,0.00,,OVC,0.00,VWS V14.00,2013-02-06 14:10:00,
2013-02-06 09:15:00,38.1,30.2,30.09,WNW,292,0.0,0.0,73,0.00,,OVC,0.00,VWS V14.00,2013-02-06 14:15:00,
2013-02-06 09:20:00,38.8,30.6,30.09,WNW,292,0.0,0.0,72,0.00,,OVC,0.00,VWS V14.00,2013-02-06 14:20:00,
2013-02-06 09:25:00,39.0,30.4,30.09,WNW,292,3.1,3.1,71,0.00,,OVC,0.00,VWS V14.00,2013-02-06 14:25:00,
2013-02-06 09:30:00,39.3,30.4,30.09,NW,315,2.2,2.2,70,0.00,,OVC,0.00,VWS V14.00,2013-02-06 14:30:00,
2013-02-06 09:35:00,39.3,30.0,30.10,West,270,3.5,3.5,69,0.00,,OVC,0.00,VWS V14.00,2013-02-06 14:35:00,
2013-02-06 09:40:00,39.9,30.2,30.10,WNW,292,2.9,2.9,68,0.00,,OVC,0.00,VWS V14.00,2013-02-06 14:40:00,
2013-02-06 09:45:00,40.1,29.3,30.10,NE,45,3.8,3.8,65,0.00,,OVC,0.00,VWS V14.00,2013-02-06 14:45:00,
2013-02-06 09:50:00,40.2,29.8,30.10,WSW,248,0.4,0.4,66,0.00,,OVC,0.00,VWS V14.00,2013-02-06 14:50:00,
2013-02-06 09:55:00,40.2,29.0,30.10,WNW,292,0.0,0.0,64,0.00,,OVC,0.00,VWS V14.00,2013-02-06 14:55:00,
2013-02-06 10:00:00,40.4,29.2,30.11,NW,315,4.2,4.2,64,0.00,,OVC,0.00,VWS V14.00,2013-02-06 15:00:00,
2013-02-06 10:05:00,40.8,29.2,30.11,WNW,292,6.0,6.0,63,0.00,,OVC,0.00,VWS V14.00,2013-02-06 15:05:00,
2013-02-06 10:10:00,41.3,29.7,30.11,WNW,292,3.8,3.8,63,0.00,,OVC,0.00,VWS V14.00,2013-02-06 15:10:00,
2013-02-06 10:15:00,41.3,29.7,30.11,WNW,292,0.0,0.0,63,0.00,,OVC,0.00,VWS V14.00,2013-02-06 15:15:00,
2013-02-06 10:20:00,41.7,29.3,30.11,ENE,68,0.0,0.0,61,0.00,,OVC,0.00,VWS V14.00,2013-02-06 15:20:00,
2013-02-06 10:25:00,41.7,29.7,30.11,WSW,248,0.0,0.0,62,0.00,,OVC,0.00,VWS V14.00,2013-02-06 15:25:00,
2013-02-06 10:30:00,41.7,27.6,30.11,NE,45,2.9,2.9,57,0.00,,OVC,0.00,VWS V14.00,2013-02-06 15:30:00,
2013-02-06 10:35:00,41.7,28.9,30.11,WSW,248,1.3,1.3,60,0.00,,OVC,0.00,VWS V14.00,2013-02-06 15:35:00,
2013-02-06 10:40:00,42.0,29.1,30.12,WSW,248,0.0,0.0,60,0.00,,OVC,0.00,VWS V14.00,2013-02-06 15:40:00,
2013-02-06 10:45:00,42.0,28.3,30.12,North,0,0.0,0.0,58,0.00,,OVC,0.00,VWS V14.00,2013-02-06 15:45:00,
2013-02-06 10:50:00,42.0,27.9,30.11,NNW,338,4.6,4.6,57,0.00,,OVC,0.00,VWS V14.00,2013-02-06 15:50:00,
2013-02-06 10:55:00,42.0,27.9,30.11,WNW,292,7.3,7.3,57,0.00,,OVC,0.00,VWS V14.00,2013-02-06 15:55:00,
2013-02-06 11:00:00,42.4,28.7,30.12,South,180,4.4,4.4,58,0.00,,OVC,0.00,VWS V14.00,2013-02-06 16:00:00,
2013-02-06 11:05:00,42.6,28.9,30.11,NNE,22,2.0,2.0,58,0.00,,OVC,0.00,VWS V14.00,2013-02-06 16:05:00,
2013-02-06 11:10:00,43.3,27.3,30.12,SW,225,0.0,0.0,53,0.00,,OVC,0.00,VWS V14.00,2013-02-06 16:10:00,
2013-02-06 11:15:00,43.5,28.4,30.12,West,270,5.3,5.3,55,0.00,,OVC,0.00,VWS V14.00,2013-02-06 16:15:00,
2013-02-06 11:20:00,43.5,28.4,30.12,West,270,6.2,6.2,55,0.00,,OVC,0.00,VWS V14.00,2013-02-06 16:20:00,
2013-02-06 11:25:00,43.5,27.1,30.12,ENE,68,0.0,0.0,52,0.00,,OVC,0.00,VWS V14.00,2013-02-06 16:25:00,
2013-02-06 11:30:00,43.3,26.9,30.11,WNW,292,0.0,0.0,52,0.00,,OVC,0.00,VWS V14.00,2013-02-06 16:30:00,
2013-02-06 11:35:00,42.6,26.2,30.11,West,270,7.1,7.1,52,0.00,,OVC,0.00,VWS V14.00,2013-02-06 16:35:00,
2013-02-06 11:40:00,42.9,26.5,30.11,WSW,248,6.4,6.4,52,0.00,,OVC,0.00,VWS V14.00,2013-02-06 16:40:00,
2013-02-06 11:45:00,42.6,26.7,30.11,NNW,338,0.0,0.0,53,0.00,,OVC,0.00,VWS V14.00,2013-02-06 16:45:00,
2013-02-06 11:50:00,42.6,26.7,30.11,NNW,338,0.2,0.2,53,0.00,,OVC,0.00,VWS V14.00,2013-02-06 16:50:00,
2013-02-06 11:55:00,42.9,27.0,30.11,WSW,248,7.6,7.6,53,0.00,,OVC,0.00,VWS V14.00,2013-02-06 16:55:00,
2013-02-06 12:00:00,43.5,27.1,30.11,NW,315,2.4,2.4,52,0.00,,OVC,0.00,VWS V14.00,2013-02-06 17:00:00,
2013-02-06 12:05:00,44.0,27.5,30.11,ESE,112,3.8,3.8,52,0.00,,OVC,0.00,VWS V14.00,2013-02-06 17:05:00,
2013-02-06 12:10:00,43.5,26.1,30.11,ENE,68,0.0,0.0,50,0.00,,OVC,0.00,VWS V14.00,2013-02-06 17:10:00,
2013-02-06 12:15:00,43.5,26.6,30.11,NNE,22,2.4,2.4,51,0.00,,OVC,0.00,VWS V14.00,2013-02-06 17:15:00,
2013-02-06 12:20:00,43.8,26.4,30.11,SW,225,8.7,8.7,50,0.00,,OVC,0.00,VWS V14.00,2013-02-06 17:20:00,
2013-02-06 12:25:00,43.7,25.8,30.11,WNW,292,1.3,1.3,49,0.00,,OVC,0.00,VWS V14.00,2013-02-06 17:25:00,
2013-02-06 12:30:00,43.7,25.3,30.12,North,0,5.5,5.5,48,0.00,,OVC,0.00,VWS V14.00,2013-02-06 17:30:00,
2013-02-06 12:35:00,42.9,24.1,30.12,West,270,6.2,6.2,47,0.00,,OVC,0.00,VWS V14.00,2013-02-06 17:35:00,
2013-02-06 12:40:00,42.4,24.1,30.12,NNE,22,0.0,0.0,48,0.00,,OVC,0.00,VWS V14.00,2013-02-06 17:40:00,
2013-02-06 12:45:00,41.7,23.5,30.12,NW,315,1.1,1.1,48,0.00,,OVC,0.00,VWS V14.00,2013-02-06 17:45:00,
2013-02-06 12:50:00,42.0,23.8,30.11,West,270,0.0,0.0,48,0.00,,OVC,0.00,VWS V14.00,2013-02-06 17:50:00,
2013-02-06 12:55:00,42.8,23.5,30.11,West,270,5.1,5.1,46,0.00,,OVC,0.00,VWS V14.00,2013-02-06 17:55:00,
2013-02-06 13:00:00,42.9,24.6,30.12,West,270,3.3,3.3,48,0.00,,OVC,0.00,VWS V14.00,2013-02-06 18:00:00,
2013-02-06 13:05:00,42.8,24.5,30.11,ENE,68,0.0,0.0,48,0.00,,OVC,0.00,VWS V14.00,2013-02-06 18:05:00,
2013-02-06 13:10:00,42.9,24.1,30.11,WNW,292,1.7,1.7,47,0.00,,OVC,0.00,VWS V14.00,2013-02-06 18:10:00,
2013-02-06 13:15:00,42.9,24.1,30.12,NW,315,2.2,2.2,47,0.00,,OVC,0.00,VWS V14.00,2013-02-06 18:15:00,
2013-02-06 13:20:00,43.1,24.8,30.11,SW,225,7.1,7.1,48,0.00,,OVC,0.00,VWS V14.00,2013-02-06 18:20:00,
2013-02-06 13:25:00,43.1,24.8,30.12,NW,315,0.0,0.0,48,0.00,,OVC,0.00,VWS V14.00,2013-02-06 18:25:00,
2013-02-06 13:30:00,42.9,24.6,30.12,NNW,338,6.2,6.2,48,0.00,,OVC,0.00,VWS V14.00,2013-02-06 18:30:00,
2013-02-06 13:35:00,42.4,23.6,30.12,West,270,0.0,0.0,47,0.00,,OVC,0.00,VWS V14.00,2013-02-06 18:35:00,
2013-02-06 13:40:00,42.4,24.1,30.12,North,0,9.8,9.8,48,0.00,,OVC,0.00,VWS V14.00,2013-02-06 18:40:00,
2013-02-06 13:45:00,42.9,24.1,30.12,West,270,1.5,1.5,47,0.00,,OVC,0.00,VWS V14.00,2013-02-06 18:45:00,
2013-02-06 13:50:00,42.9,24.6,30.12,WSW,248,3.5,3.5,48,0.00,,OVC,0.00,VWS V14.00,2013-02-06 18:50:00,
2013-02-06 13:55:00,43.7,24.8,30.12,NW,315,0.0,0.0,47,0.00,,OVC,0.00,VWS V14.00,2013-02-06 18:55:00,
2013-02-06 14:00:00,43.8,24.9,30.12,NW,315,0.0,0.0,47,0.00,,OVC,0.00,VWS V14.00,2013-02-06 19:00:00,
2013-02-06 14:05:00,43.7,24.8,30.12,West,270,3.8,3.8,47,0.00,,OVC,0.00,VWS V14.00,2013-02-06 19:05:00,
2013-02-06 14:10:00,42.9,24.6,30.12,North,0,7.8,7.8,48,0.00,,OVC,0.00,VWS V14.00,2013-02-06 19:10:00,
2013-02-06 14:15:00,42.0,23.2,30.12,NNW,338,0.0,0.0,47,0.00,,OVC,0.00,VWS V14.00,2013-02-06 19:15:00,
2013-02-06 14:20:00,41.5,23.3,30.12,West,270,2.9,2.9,48,0.00,,OVC,0.00,VWS V14.00,2013-02-06 19:20:00,
2013-02-06 14:25:00,41.1,23.4,30.13,NW,315,1.5,1.5,49,0.00,,OVC,0.00,VWS V14.00,2013-02-06 19:25:00,
2013-02-06 14:30:00,41.3,23.6,30.13,NNW,338,6.4,6.4,49,0.00,,OVC,0.00,VWS V14.00,2013-02-06 19:30:00,
2013-02-06 14:35:00,41.5,23.8,30.13,NNW,338,2.0,2.0,49,0.00,,OVC,0.00,VWS V14.00,2013-02-06 19:35:00,
2013-02-06 14:40:00,41.5,23.8,30.13,West,270,1.5,1.5,49,0.00,,OVC,0.00,VWS V14.00,2013-02-06 19:40:00,
2013-02-06 14:45:00,41.7,24.5,30.13,West,270,6.2,6.2,50,0.00,,OVC,0.00,VWS V14.00,2013-02-06 19:45:00,
2013-02-06 14:50:00,41.1,23.4,30.14,NE,45,0.0,0.0,49,0.00,,OVC,0.00,VWS V14.00,2013-02-06 19:50:00,
2013-02-06 14:55:00,41.1,23.9,30.13,NNE,22,4.9,4.9,50,0.00,,OVC,0.00,VWS V14.00,2013-02-06 19:55:00,
2013-02-06 15:00:00,41.1,23.9,30.14,North,0,0.0,0.0,50,0.00,,OVC,0.00,VWS V14.00,2013-02-06 20:00:00,
2013-02-06 15:05:00,41.0,23.8,30.14,NNW,338,2.0,2.0,50,0.00,,OVC,0.00,VWS V14.00,2013-02-06 20:05:00,
2013-02-06 15:10:00,41.1,23.9,30.14,NNW,338,0.0,0.0,50,0.00,,OVC,0.00,VWS V14.00,2013-02-06 20:10:00,
2013-02-06 15:15:00,41.0,23.8,30.14,NW,315,2.0,2.0,50,0.00,,OVC,0.00,VWS V14.00,2013-02-06 20:15:00,
2013-02-06 15:20:00,41.0,23.8,30.14,NW,315,2.0,2.0,50,0.00,,OVC,0.00,VWS V14.00,2013-02-06 20:20:00,
2013-02-06 15:25:00,40.8,24.1,30.15,WNW,292,2.0,2.0,51,0.00,,OVC,0.00,VWS V14.00,2013-02-06 20:25:00,
2013-02-06 15:30:00,40.4,24.2,30.15,NW,315,0.0,0.0,52,0.00,,OVC,0.00,VWS V14.00,2013-02-06 20:30:00,
2013-02-06 15:35:00,40.2,24.0,30.14,WNW,292,0.0,0.0,52,0.00,,OVC,0.00,VWS V14.00,2013-02-06 20:35:00,
2013-02-06 15:40:00,40.8,24.5,30.15,West,270,3.5,3.5,52,0.00,,OVC,0.00,VWS V14.00,2013-02-06 20:40:00,
2013-02-06 15:45:00,41.3,24.5,30.14,NNW,338,1.3,1.3,51,0.00,,OVC,0.00,VWS V14.00,2013-02-06 20:45:00,
2013-02-06 15:50:00,41.5,24.3,30.15,NW,315,0.0,0.0,50,0.00,,OVC,0.00,VWS V14.00,2013-02-06 20:50:00,
2013-02-06 15:55:00,41.5,24.3,30.15,West,270,5.8,5.8,50,0.00,,OVC,0.00,VWS V14.00,2013-02-06 20:55:00,
2013-02-06 16:00:00,41.3,23.6,30.15,NW,315,4.0,4.0,49,0.00,,OVC,0.00,VWS V14.00,2013-02-06 21:00:00,
2013-02-06 16:05:00,41.0,23.3,30.15,West,270,0.0,0.0,49,0.00,,OVC,0.00,VWS V14.00,2013-02-06 21:05:00,
2013-02-06 16:10:00,40.8,23.6,30.15,WSW,248,0.0,0.0,50,0.00,,OVC,0.00,VWS V14.00,2013-02-06 21:10:00,
2013-02-06 16:15:00,40.6,23.4,30.16,NW,315,2.9,2.9,50,0.00,,OVC,0.00,VWS V14.00,2013-02-06 21:15:00,
2013-02-06 16:20:00,40.4,23.2,30.16,WNW,292,6.7,6.7,50,0.00,,OVC,0.00,VWS V14.00,2013-02-06 21:20:00,
2013-02-06 16:25:00,40.1,22.5,30.16,North,0,3.3,3.3,49,0.00,,OVC,0.00,VWS V14.00,2013-02-06 21:25:00,
2013-02-06 16:30:00,39.9,22.3,30.17,NNE,22,0.0,0.0,49,0.00,,OVC,0.00,VWS V14.00,2013-02-06 21:30:00,
2013-02-06 16:35:00,39.7,22.1,30.17,North,0,1.7,1.7,49,0.00,,OVC,0.00,VWS V14.00,2013-02-06 21:35:00,
2013-02-06 16:40:00,39.3,21.8,30.17,WNW,292,0.0,0.0,49,0.00,,OVC,0.00,VWS V14.00,2013-02-06 21:40:00,
2013-02-06 16:45:00,39.0,22.0,30.17,NNW,338,0.0,0.0,50,0.00,,OVC,0.00,VWS V14.00,2013-02-06 21:45:00,
2013-02-06 16:50:00,39.0,22.0,30.18,WSW,248,2.6,2.6,50,0.00,,OVC,0.00,VWS V14.00,2013-02-06 21:50:00,
2013-02-06 16:55:00,38.8,21.8,30.18,NNW,338,0.0,0.0,50,0.00,,OVC,0.00,VWS V14.00,2013-02-06 21:55:00,
2013-02-06 17:00:00,38.4,21.4,30.18,NW,315,0.0,0.0,50,0.00,,OVC,0.00,VWS V14.00,2013-02-06 22:00:00,
2013-02-06 17:05:00,38.1,21.6,30.18,NNE,22,0.0,0.0,51,0.00,,OVC,0.00,VWS V14.00,2013-02-06 22:05:00,
2013-02-06 17:10:00,37.7,21.7,30.19,North,0,0.0,0.0,52,0.00,,OVC,0.00,VWS V14.00,2013-02-06 22:10:00,
2013-02-06 17:15:00,37.4,21.4,30.19,NW,315,3.5,3.5,52,0.00,,OVC,0.00,VWS V14.00,2013-02-06 22:15:00,
2013-02-06 17:20:00,37.2,21.2,30.19,West,270,0.0,0.0,52,0.00,,OVC,0.00,VWS V14.00,2013-02-06 22:20:00,
2013-02-06 17:25:00,36.6,21.1,30.20,WNW,292,0.0,0.0,53,0.00,,OVC,0.00,VWS V14.00,2013-02-06 22:25:00,
2013-02-06 17:30:00,36.3,21.3,30.20,NW,315,0.0,0.0,54,0.00,,OVC,0.00,VWS V14.00,2013-02-06 22:30:00,
2013-02-06 17:35:00,36.1,21.1,30.20,NW,315,0.0,0.0,54,0.00,,OVC,0.00,VWS V14.00,2013-02-06 22:35:00,
2013-02-06 17:40:00,35.7,21.1,30.20,WNW,292,0.0,0.0,55,0.00,,OVC,0.00,VWS V14.00,2013-02-06 22:40:00,
2013-02-06 17:45:00,35.4,20.9,30.21,NW,315,3.3,3.3,55,0.00,,OVC,0.00,VWS V14.00,2013-02-06 22:45:00,
2013-02-06 17:50:00,35.4,20.9,30.21,NW,315,0.0,0.0,55,0.00,,OVC,0.00,VWS V14.00,2013-02-06 22:50:00,
2013-02-06 17:55:00,35.4,20.9,30.21,NW,315,0.0,0.0,55,0.00,,OVC,0.00,VWS V14.00,2013-02-06 22:55:00,
2013-02-06 18:00:00,35.4,20.9,30.22,West,270,0.0,0.0,55,0.00,,OVC,0.00,VWS V14.00,2013-02-06 23:00:00,
2013-02-06 18:05:00,35.2,20.7,30.23,West,270,0.0,0.0,55,0.00,,OVC,0.00,VWS V14.00,2013-02-06 23:05:00,
2013-02-06 18:10:00,35.2,20.7,30.23,NNW,338,0.0,0.0,55,0.00,,OVC,0.00,VWS V14.00,2013-02-06 23:10:00,
2013-02-06 18:15:00,35.0,20.9,30.23,NW,315,0.0,0.0,56,0.00,,OVC,0.00,VWS V14.00,2013-02-06 23:15:00,
2013-02-06 18:20:00,34.8,20.7,30.23,NNE,22,0.0,0.0,56,0.00,,OVC,0.00,VWS V14.00,2013-02-06 23:20:00,
2013-02-06 18:25:00,34.8,20.7,30.24,North,0,4.4,4.4,56,0.00,,OVC,0.00,VWS V14.00,2013-02-06 23:25:00,
2013-02-06 18:30:00,34.8,20.7,30.24,NW,315,1.5,1.5,56,0.00,,OVC,0.00,VWS V14.00,2013-02-06 23:30:00,
2013-02-06 18:34:00,34.7,20.6,30.24,NW,315,0.0,0.0,56,0.00,,OVC,0.00,VWS V14.00,2013-02-06 23:34:00,
2013-02-06 18:39:00,34.5,20.4,30.24,North,0,0.0,0.0,56,0.00,,OVC,0.00,VWS V14.00,2013-02-06 23:39:00,
2013-02-06 18:44:00,34.3,20.7,30.24,North,0,0.0,0.0,57,0.00,,OVC,0.00,VWS V14.00,2013-02-06 23:44:00,
2013-02-06 18:49:00,34.3,20.7,30.25,NW,315,0.0,0.0,57,0.00,,OVC,0.00,VWS V14.00,2013-02-06 23:49:00,
2013-02-06 18:54:00,34.3,20.7,30.25,West,270,0.0,0.0,57,0.00,,OVC,0.00,VWS V14.00,2013-02-06 23:54:00,
2013-02-06 18:59:00,34.1,20.5,30.26,NNW,338,0.0,0.0,57,0.00,,OVC,0.00,VWS V14.00,2013-02-06 23:59:00,
2013-02-06 19:04:00,33.9,20.7,30.26,NW,315,0.0,0.0,58,0.00,,OVC,0.00,VWS V14.00,2013-02-07 00:04:00,
2013-02-06 19:09:00,33.8,20.6,30.26,NNW,338,0.0,0.0,58,0.00,,OVC,0.00,VWS V14.00,2013-02-07 00:09:00,
2013-02-06 19:14:00,33.6,20.8,30.26,NW,315,0.0,0.0,59,0.00,,OVC,0.00,VWS V14.00,2013-02-07 00:14:00,
2013-02-06 19:19:00,33.6,20.8,30.27,WNW,292,0.0,0.0,59,0.00,,OVC,0.00,VWS V14.00,2013-02-07 00:19:00,
2013-02-06 19:24:00,33.4,20.6,30.27,NW,315,1.5,1.5,59,0.00,,OVC,0.00,VWS V14.00,2013-02-07 00:24:00,
2013-02-06 19:29:00,33.2,20.4,30.27,NNW,338,0.0,0.0,59,0.00,,OVC,0.00,VWS V14.00,2013-02-07 00:29:00,
2013-02-06 19:34:00,33.0,20.2,30.27,WNW,292,0.0,0.0,59,0.00,,OVC,0.00,VWS V14.00,2013-02-07 00:34:00,
2013-02-06 19:39:00,33.0,20.2,30.27,West,270,0.0,0.0,59,0.00,,OVC,0.00,VWS V14.00,2013-02-07 00:39:00,
2013-02-06 19:44:00,33.0,20.2,30.27,NW,315,0.0,0.0,59,0.00,,OVC,0.00,VWS V14.00,2013-02-07 00:44:00,
2013-02-06 19:49:00,32.9,20.2,30.27,NNE,22,1.1,1.1,59,0.00,,OVC,0.00,VWS V14.00,2013-02-07 00:49:00,
2013-02-06 19:54:00,32.9,20.5,30.27,North,0,0.0,0.0,60,0.00,,OVC,0.00,VWS V14.00,2013-02-07 00:54:00,
2013-02-06 19:59:00,32.7,20.4,30.27,NNW,338,0.0,0.0,60,0.00,,OVC,0.00,VWS V14.00,2013-02-07 00:59:00,
2013-02-06 20:04:00,32.7,20.4,30.27,NW,315,0.0,0.0,60,0.00,,OVC,0.00,VWS V14.00,2013-02-07 01:04:00,
2013-02-06 20:09:00,32.5,20.2,30.28,WNW,292,0.0,0.0,60,0.00,,OVC,0.00,VWS V14.00,2013-02-07 01:09:00,
2013-02-06 20:14:00,32.5,20.2,30.29,North,0,0.0,0.0,60,0.00,,OVC,0.00,VWS V14.00,2013-02-07 01:14:00,
2013-02-06 20:19:00,32.3,20.0,30.29,WNW,292,0.0,0.0,60,0.00,,OVC,0.00,VWS V14.00,2013-02-07 01:19:00,
2013-02-06 20:24:00,32.1,20.2,30.29,NNW,338,0.0,0.0,61,0.00,,OVC,0.00,VWS V14.00,2013-02-07 01:24:00,
2013-02-06 20:29:00,31.8,19.9,30.29,WNW,292,0.0,0.0,61,0.00,,OVC,0.00,VWS V14.00,2013-02-07 01:29:00,
2013-02-06 20:34:00,31.8,19.9,30.29,North,0,0.0,0.0,61,0.00,,OVC,0.00,VWS V14.00,2013-02-07 01:34:00,
2013-02-06 20:39:00,31.8,19.9,30.29,West,270,2.0,2.0,61,0.00,,OVC,0.00,VWS V14.00,2013-02-07 01:39:00,
2013-02-06 20:44:00,31.6,19.7,30.29,NNE,22,1.1,1.1,61,0.00,,OVC,0.00,VWS V14.00,2013-02-07 01:44:00,
2013-02-06 20:49:00,31.6,19.7,30.29,North,0,0.0,0.0,61,0.00,,OVC,0.00,VWS V14.00,2013-02-07 01:49:00,
2013-02-06 20:54:00,31.6,19.7,30.29,NNE,22,0.0,0.0,61,0.00,,OVC,0.00,VWS V14.00,2013-02-07 01:54:00,
2013-02-06 20:59:00,31.2,19.3,30.29,NNE,22,0.0,0.0,61,0.00,,OVC,0.00,VWS V14.00,2013-02-07 01:59:00,
2013-02-06 21:04:00,31.2,19.3,30.29,NNE,22,0.8,0.8,61,0.00,,OVC,0.00,VWS V14.00,2013-02-07 02:04:00,
2013-02-06 21:09:00,31.2,19.3,30.30,NNE,22,0.0,0.0,61,0.00,,OVC,0.00,VWS V14.00,2013-02-07 02:09:00,
2013-02-06 21:14:00,31.2,19.3,30.31,North,0,1.7,1.7,61,0.00,,OVC,0.00,VWS V14.00,2013-02-07 02:14:00,
2013-02-06 21:19:00,31.1,19.2,30.31,NNE,22,0.8,0.8,61,0.00,,OVC,0.00,VWS V14.00,2013-02-07 02:19:00,
2013-02-06 21:24:00,31.1,19.2,30.31,North,0,1.1,1.1,61,0.00,,OVC,0.00,VWS V14.00,2013-02-07 02:24:00,
2013-02-06 21:29:00,30.9,19.0,30.31,ENE,68,3.3,3.3,61,0.00,,OVC,0.00,VWS V14.00,2013-02-07 02:29:00,
2013-02-06 21:34:00,30.9,18.7,30.31,North,0,2.6,2.6,60,0.00,,OVC,0.00,VWS V14.00,2013-02-07 02:34:00,
2013-02-06 21:39:00,31.1,18.5,30.31,NNE,22,0.0,0.0,59,0.00,,OVC,0.00,VWS V14.00,2013-02-07 02:39:00,
2013-02-06 21:44:00,31.1,18.5,30.32,North,0,0.0,0.0,59,0.00,,OVC,0.00,VWS V14.00,2013-02-07 02:44:00,
2013-02-06 21:49:00,30.9,17.9,30.32,NNE,22,0.0,0.0,58,0.00,,OVC,0.00,VWS V14.00,2013-02-07 02:49:00,
2013-02-06 21:54:00,30.9,17.9,30.32,North,0,0.0,0.0,58,0.00,,OVC,0.00,VWS V14.00,2013-02-07 02:54:00,
2013-02-06 21:59:00,30.7,17.7,30.32,WNW,292,0.0,0.0,58,0.00,,OVC,0.00,VWS V14.00,2013-02-07 02:59:00,
2013-02-06 22:04:00,30.7,17.7,30.32,NE,45,0.0,0.0,58,0.00,,OVC,0.00,VWS V14.00,2013-02-07 03:04:00,
2013-02-06 22:09:00,30.7,17.3,30.33,NE,45,0.0,0.0,57,0.00,,OVC,0.00,VWS V14.00,2013-02-07 03:09:00,
2013-02-06 22:14:00,30.5,17.1,30.33,NNE,22,0.0,0.0,57,0.00,,OVC,0.00,VWS V14.00,2013-02-07 03:14:00,
2013-02-06 22:19:00,30.5,17.5,30.33,West,270,0.0,0.0,58,0.00,,OVC,0.00,VWS V14.00,2013-02-07 03:19:00,
2013-02-06 22:24:00,30.5,17.1,30.33,NNE,22,0.0,0.0,57,0.00,,OVC,0.00,VWS V14.00,2013-02-07 03:24:00,
2013-02-06 22:29:00,30.3,16.9,30.34,NNE,22,0.0,0.0,57,0.00,,OVC,0.00,VWS V14.00,2013-02-07 03:29:00,
2013-02-06 22:34:00,30.3,16.9,30.34,NNW,338,0.0,0.0,57,0.00,,OVC,0.00,VWS V14.00,2013-02-07 03:34:00,
2013-02-06 22:39:00,30.3,16.9,30.34,NNE,22,1.1,1.1,57,0.00,,OVC,0.00,VWS V14.00,2013-02-07 03:39:00,
2013-02-06 22:44:00,30.3,16.5,30.34,North,0,0.0,0.0,56,0.00,,OVC,0.00,VWS V14.00,2013-02-07 03:44:00,
2013-02-06 22:49:00,30.2,16.4,30.34,North,0,0.0,0.0,56,0.00,,OVC,0.00,VWS V14.00,2013-02-07 03:49:00,
2013-02-06 22:54:00,30.0,16.2,30.34,North,0,0.0,0.0,56,0.00,,OVC,0.00,VWS V14.00,2013-02-07 03:54:00,
2013-02-06 22:59:00,30.0,16.2,30.35,NNE,22,0.0,0.0,56,0.00,,OVC,0.00,VWS V14.00,2013-02-07 03:59:00,
2013-02-06 23:04:00,29.8,16.4,30.35,NNE,22,0.0,0.0,57,0.00,,OVC,0.00,VWS V14.00,2013-02-07 04:04:00,
2013-02-06 23:09:00,29.8,16.4,30.35,North,0,0.0,0.0,57,0.00,,OVC,0.00,VWS V14.00,2013-02-07 04:09:00,
2013-02-06 23:14:00,29.4,16.5,30.35,NNW,338,0.0,0.0,58,0.00,,OVC,0.00,VWS V14.00,2013-02-07 04:14:00,
2013-02-06 23:19:00,29.3,16.0,30.35,NNE,22,0.0,0.0,57,0.00,,OVC,0.00,VWS V14.00,2013-02-07 04:19:00,
2013-02-06 23:24:00,29.3,16.0,30.35,NE,45,0.0,0.0,57,0.00,,OVC,0.00,VWS V14.00,2013-02-07 04:24:00,
2013-02-06 23:29:00,29.1,15.8,30.36,NNE,22,0.0,0.0,57,0.00,,OVC,0.00,VWS V14.00,2013-02-07 04:29:00,
2013-02-06 23:34:00,28.9,15.6,30.36,NNE,22,0.0,0.0,57,0.00,,OVC,0.00,VWS V14.00,2013-02-07 04:34:00,
2013-02-06 23:39:00,28.9,15.6,30.36,NNE,22,0.0,0.0,57,0.00,,OVC,0.00,VWS V14.00,2013-02-07 04:39:00,
2013-02-06 23:44:00,28.7,15.4,30.36,North,0,0.0,0.0,57,0.00,,OVC,0.00,VWS V14.00,2013-02-07 04:44:00,
2013-02-06 23:49:00,28.7,15.4,30.36,North,0,0.0,0.0,57,0.00,,OVC,0.00,VWS V14.00,2013-02-07 04:49:00,
2013-02-06 23:54:00,28.5,16.0,30.36,North,0,0.0,0.0,59,0.00,,OVC,0.00,VWS V14.00,2013-02-07 04:54:00,
2013-02-06 23:59:00,28.5,15.6,30.36,North,0,0.0,0.0,58,0.00,,OVC,0.00,VWS V14.00,2013-02-07 04:59:00,